Time;durP1;ratioP1;P1;durP2;ratioP2;P2;SDS_P1;SDS_P2;PMS_P1;PMS_P2;Temp;Humidity;BMP_temperature;BMP_pressure;BME280_temperature;BME280_humidity;BME280_pressure;Samples;Min_cycle;Max_cycle;Signal;HPM_P1;HPM_P2
2022/05/29 00:00:54;;;;;;;11.07;2.15;;;;;;;;;;5054976;28;20047;-26
2022/05/29 00:03:20;;;;;;;22.17;3.75;;;;;;;;;;5055803;28;20056;-26
2022/05/29 00:05:48;;;;;;;15.10;2.95;;;;;;;;;;5055168;28;20040;-26
2022/05/29 00:08:15;;;;;;;11.93;2.83;;;;;;;;;;5054338;28;20045;-26
2022/05/29 00:10:42;;;;;;;20.75;3.85;;;;;;;;;;5055955;28;20067;-26
2022/05/29 00:13:11;;;;;;;12.55;2.90;;;;;;;;;;5037542;28;20079;-26
2022/05/29 00:15:38;;;;;;;17.77;2.90;;;;;;;;;;5055073;28;20057;-26
2022/05/29 00:18:07;;;;;;;13.05;2.90;;;;;;;;;;5055007;28;20128;-25
2022/05/29 00:20:34;;;;;;;9.57;2.72;;;;;;;;;;5053690;28;20049;-26
2022/05/29 00:23:00;;;;;;;16.58;2.90;;;;;;;;;;5053733;28;20049;-25
2022/05/29 00:25:26;;;;;;;10.05;2.10;;;;;;;;;;5054953;28;20045;-25
2022/05/29 00:27:52;;;;;;;14.52;3.30;;;;;;;;;;5054779;28;20048;-26
2022/05/29 00:30:19;;;;;;;12.80;2.55;;;;;;;;;;5054750;28;20129;-26
2022/05/29 00:32:45;;;;;;;15.90;2.72;;;;;;;;;;5054016;28;20063;-26
2022/05/29 00:35:11;;;;;;;14.25;2.85;;;;;;;;;;5036856;28;20052;-26
2022/05/29 00:37:39;;;;;;;15.93;2.85;;;;;;;;;;5054857;28;20123;-26
2022/05/29 00:40:21;;;;;;;14.50;3.38;;;;;;;;;;5054554;28;20131;-26
2022/05/29 00:42:47;;;;;;;19.58;3.00;;;;;;;;;;5053999;28;20056;-26
2022/05/29 00:45:19;;;;;;;17.90;3.22;;;;;;;;;;5053520;28;20044;-26
2022/05/29 00:47:47;;;;;;;14.95;3.22;;;;;;;;;;5054340;28;20045;-26
2022/05/29 00:50:17;;;;;;;20.92;4.20;;;;;;;;;;5054414;28;20053;-26
2022/05/29 00:52:43;;;;;;;21.13;3.90;;;;;;;;;;5053358;28;20041;-26
2022/05/29 00:55:31;;;;;;;11.07;2.83;;;;;;;;;;5053178;28;20045;-26
2022/05/29 00:58:02;;;;;;;16.27;3.47;;;;;;;;;;5053127;28;20041;-26
2022/05/29 01:00:31;;;;;;;12.98;2.78;;;;;;;;;;5054181;28;20135;-26
2022/05/29 01:03:00;;;;;;;14.93;3.60;;;;;;;;;;5054214;28;20541;-26
2022/05/29 01:05:28;;;;;;;11.50;2.80;;;;;;;;;;5053099;28;20453;-26
2022/05/29 01:07:57;;;;;;;15.35;3.92;;;;;;;;;;5054274;28;20550;-26
2022/05/29 01:10:26;;;;;;;16.73;3.03;;;;;;;;;;5053064;28;20198;-26
2022/05/29 01:13:14;;;;;;;16.38;3.63;;;;;;;;;;5053024;28;20083;-26
2022/05/29 01:15:46;;;;;;;15.15;3.22;;;;;;;;;;5054243;28;20051;-26
2022/05/29 01:18:21;;;;;;;16.00;3.60;;;;;;;;;;5053900;28;20487;-26
2022/05/29 01:20:52;;;;;;;15.02;4.03;;;;;;;;;;5053908;28;20132;-26
2022/05/29 01:23:18;;;;;;;16.02;3.55;;;;;;;;;;5052859;28;20390;-27
2022/05/29 01:26:04;;;;;;;14.32;2.65;;;;;;;;;;5053708;28;20049;-26
2022/05/29 01:28:45;;;;;;;16.25;2.72;;;;;;;;;;5052778;28;20517;-26
2022/05/29 01:31:15;;;;;;;14.05;3.03;;;;;;;;;;5053678;28;20491;-26
2022/05/29 01:33:45;;;;;;;12.75;2.92;;;;;;;;;;5053699;28;20091;-26
2022/05/29 01:36:13;;;;;;;13.93;2.47;;;;;;;;;;5052769;28;20068;-27
2022/05/29 01:38:47;;;;;;;17.98;3.50;;;;;;;;;;5053615;28;20052;-26
2022/05/29 01:41:35;;;;;;;15.57;2.85;;;;;;;;;;5052414;28;20049;-26
2022/05/29 01:44:06;;;;;;;15.50;3.15;;;;;;;;;;5053511;28;20052;-26
2022/05/29 01:46:34;;;;;;;15.75;2.97;;;;;;;;;;5053840;28;20127;-26
2022/05/29 01:49:04;;;;;;;17.20;3.22;;;;;;;;;;5053549;28;20064;-26
2022/05/29 01:51:44;;;;;;;16.48;3.20;;;;;;;;;;5053497;28;20048;-27
2022/05/29 01:54:16;;;;;;;22.08;3.08;;;;;;;;;;5053844;28;20098;-26
2022/05/29 01:56:54;;;;;;;18.13;3.00;;;;;;;;;;5053483;28;20119;-26
2022/05/29 01:59:35;;;;;;;8.20;1.90;;;;;;;;;;5052781;28;20045;-26
2022/05/29 02:02:05;;;;;;;15.75;2.65;;;;;;;;;;5054077;28;20041;-26
2022/05/29 02:04:34;;;;;;;8.65;2.05;;;;;;;;;;5053387;28;20045;-26
2022/05/29 02:09:51;;;;;;;7.57;1.98;;;;;;;;;;5052409;28;20453;-26
2022/05/29 02:12:19;;;;;;;13.32;2.55;;;;;;;;;;5053385;28;20049;-26
2022/05/29 02:14:59;;;;;;;8.70;2.25;;;;;;;;;;5052354;28;20441;-26
2022/05/29 02:17:28;;;;;;;13.00;2.13;;;;;;;;;;5053325;28;20098;-27
2022/05/29 02:20:07;;;;;;;9.27;2.15;;;;;;;;;;5053240;28;20083;-26
2022/05/29 02:22:35;;;;;;;6.85;1.85;;;;;;;;;;5053191;28;20136;-26
2022/05/29 02:25:21;;;;;;;15.00;2.17;;;;;;;;;;5052220;28;20474;-26
2022/05/29 02:27:55;;;;;;;9.55;2.33;;;;;;;;;;5051787;28;20049;-26
2022/05/29 02:30:27;;;;;;;7.95;2.03;;;;;;;;;;5052814;28;20469;-26
2022/05/29 02:32:56;;;;;;;5.97;1.85;;;;;;;;;;5053649;28;20137;-26
2022/05/29 02:35:28;;;;;;;11.23;2.38;;;;;;;;;;5052443;28;20095;-26
2022/05/29 02:38:05;;;;;;;12.73;3.08;;;;;;;;;;5053074;28;20056;-25
2022/05/29 02:40:43;;;;;;;13.38;2.70;;;;;;;;;;5053198;28;20052;-25
2022/05/29 02:43:12;;;;;;;18.73;4.57;;;;;;;;;;5053068;28;20532;-24
2022/05/29 02:46:00;;;;;;;16.92;3.47;;;;;;;;;;5052784;28;20057;-24
2022/05/29 02:48:32;;;;;;;20.40;3.35;;;;;;;;;;5055304;28;20103;-24
2022/05/29 02:51:17;;;;;;;17.38;3.40;;;;;;;;;;5056887;28;20498;-24
2022/05/29 02:53:46;;;;;;;15.10;3.42;;;;;;;;;;5056623;28;20093;-24
2022/05/29 02:56:13;;;;;;;18.95;3.72;;;;;;;;;;5057112;28;20102;-24
2022/05/29 02:58:43;;;;;;;22.40;4.28;;;;;;;;;;5057053;28;20041;-24
2022/05/29 03:01:09;;;;;;;22.77;4.03;;;;;;;;;;5056472;28;20494;-24
2022/05/29 03:03:54;;;;;;;18.80;4.30;;;;;;;;;;5056325;28;20057;-24
2022/05/29 03:06:20;;;;;;;18.13;3.63;;;;;;;;;;5054862;28;20057;-24
2022/05/29 03:09:04;;;;;;;17.50;3.58;;;;;;;;;;5056332;28;20061;-24
2022/05/29 03:11:33;;;;;;;12.82;3.13;;;;;;;;;;5056312;28;20449;-24
2022/05/29 03:14:02;;;;;;;19.30;3.75;;;;;;;;;;5055008;28;20049;-24
2022/05/29 03:16:45;;;;;;;15.57;2.58;;;;;;;;;;5056160;28;20045;-24
2022/05/29 03:19:27;;;;;;;16.65;4.13;;;;;;;;;;5056722;28;20052;-24
2022/05/29 03:21:53;;;;;;;14.05;2.65;;;;;;;;;;5056120;28;20045;-24
2022/05/29 03:24:27;;;;;;;12.23;2.33;;;;;;;;;;5055907;28;20048;-24
2022/05/29 03:27:06;;;;;;;8.68;1.88;;;;;;;;;;5056210;28;20056;-25
2022/05/29 03:29:42;;;;;;;17.35;4.25;;;;;;;;;;5056286;28;20048;-25
2022/05/29 03:32:09;;;;;;;15.90;3.15;;;;;;;;;;5038932;28;20055;-25
2022/05/29 03:34:37;;;;;;;12.75;1.75;;;;;;;;;;5054665;28;20087;-25
2022/05/29 03:37:03;;;;;;;7.38;1.65;;;;;;;;;;5038606;28;20085;-25
2022/05/29 03:39:30;;;;;;;12.10;2.70;;;;;;;;;;5055719;28;20099;-25
2022/05/29 03:41:56;;;;;;;13.77;2.58;;;;;;;;;;5055990;28;20049;-25
2022/05/29 03:44:23;;;;;;;11.05;2.13;;;;;;;;;;5055938;28;20052;-25
2022/05/29 03:46:49;;;;;;;13.77;2.45;;;;;;;;;;5055021;28;20123;-25
2022/05/29 03:49:16;;;;;;;11.95;2.67;;;;;;;;;;5056126;28;20040;-25
2022/05/29 03:51:42;;;;;;;15.45;2.75;;;;;;;;;;5054404;28;20502;-26
2022/05/29 03:54:09;;;;;;;12.40;2.42;;;;;;;;;;5055473;28;20167;-25
2022/05/29 03:56:35;;;;;;;9.13;3.03;;;;;;;;;;5055449;28;20041;-25
2022/05/29 03:59:02;;;;;;;12.00;2.25;;;;;;;;;;5054559;28;20475;-25
2022/05/29 04:01:28;;;;;;;15.98;2.50;;;;;;;;;;5055261;28;20071;-25
2022/05/29 04:03:54;;;;;;;13.30;2.97;;;;;;;;;;5054067;28;20045;-25
2022/05/29 04:06:24;;;;;;;13.85;2.75;;;;;;;;;;5053995;28;20438;-25
2022/05/29 04:14:24;;;;;;;19.05;3.25;;;;;;;;;;5055182;28;20115;-26
2022/05/29 04:16:50;;;;;;;15.73;3.05;;;;;;;;;;5054091;28;20057;-26
2022/05/29 04:19:16;;;;;;;14.55;3.45;;;;;;;;;;5053846;28;20132;-27
2022/05/29 04:21:43;;;;;;;14.07;3.28;;;;;;;;;;5054986;28;20087;-26
2022/05/29 04:24:09;;;;;;;15.57;2.45;;;;;;;;;;5054974;28;20045;-26
2022/05/29 04:26:36;;;;;;;17.42;2.40;;;;;;;;;;5053785;28;20395;-26
2022/05/29 04:29:03;;;;;;;13.63;2.90;;;;;;;;;;5054813;28;20495;-26
2022/05/29 04:31:30;;;;;;;11.68;2.38;;;;;;;;;;5053561;28;20529;-25
2022/05/29 04:33:56;;;;;;;17.75;2.50;;;;;;;;;;5054712;28;20049;-25
2022/05/29 04:36:24;;;;;;;20.05;2.38;;;;;;;;;;5054700;28;20127;-25
2022/05/29 04:38:52;;;;;;;22.20;4.50;;;;;;;;;;5054310;28;20498;-26
2022/05/29 04:41:24;;;;;;;18.88;3.30;;;;;;;;;;5053693;28;20406;-26
2022/05/29 04:43:55;;;;;;;17.58;3.13;;;;;;;;;;5054666;28;20045;-26
2022/05/29 04:46:21;;;;;;;13.38;2.70;;;;;;;;;;5053990;28;20080;-26
2022/05/29 04:48:47;;;;;;;17.13;2.90;;;;;;;;;;5054442;28;20049;-26
2022/05/29 04:51:13;;;;;;;18.10;3.47;;;;;;;;;;5036597;28;20088;-26
2022/05/29 04:53:39;;;;;;;17.42;2.70;;;;;;;;;;5053458;28;20045;-26
2022/05/29 04:56:07;;;;;;;17.48;2.70;;;;;;;;;;5054369;28;20045;-26
2022/05/29 04:58:33;;;;;;;14.25;1.88;;;;;;;;;;5053882;28;20067;-26
2022/05/29 05:01:00;;;;;;;9.43;2.22;;;;;;;;;;5052984;28;20045;-26
2022/05/29 05:03:27;;;;;;;9.73;2.67;;;;;;;;;;5054111;28;20060;-26
2022/05/29 05:05:53;;;;;;;12.85;2.00;;;;;;;;;;5053917;28;20570;-26
2022/05/29 05:08:19;;;;;;;9.95;2.17;;;;;;;;;;5054706;28;20403;-26
2022/05/29 05:10:48;;;;;;;15.43;2.13;;;;;;;;;;5053815;28;20045;-26
2022/05/29 05:13:15;;;;;;;13.82;2.47;;;;;;;;;;5054012;28;20051;-26
2022/05/29 05:15:41;;;;;;;15.55;3.50;;;;;;;;;;5053923;28;20052;-26
2022/05/29 05:18:07;;;;;;;12.88;2.20;;;;;;;;;;5054187;28;20048;-26
2022/05/29 05:20:35;;;;;;;13.32;2.50;;;;;;;;;;5053877;28;20048;-26
2022/05/29 05:23:02;;;;;;;16.00;3.38;;;;;;;;;;5053866;28;20061;-25
2022/05/29 05:25:28;;;;;;;10.82;2.33;;;;;;;;;;5054633;28;20127;-25
2022/05/29 05:27:54;;;;;;;15.98;2.90;;;;;;;;;;5053699;28;20041;-25
2022/05/29 05:30:20;;;;;;;11.05;1.75;;;;;;;;;;5054307;28;20418;-25
2022/05/29 05:32:46;;;;;;;17.65;2.15;;;;;;;;;;5053724;28;20078;-25
2022/05/29 05:35:12;;;;;;;13.55;2.42;;;;;;;;;;5052722;28;20052;-25
2022/05/29 05:37:39;;;;;;;14.30;4.13;;;;;;;;;;5052677;28;20053;-25
2022/05/29 05:40:08;;;;;;;12.85;2.30;;;;;;;;;;5053321;28;20462;-25
2022/05/29 05:42:34;;;;;;;13.07;2.83;;;;;;;;;;5053628;28;20077;-26
2022/05/29 05:45:01;;;;;;;22.48;2.70;;;;;;;;;;5054412;28;20048;-26
2022/05/29 05:47:27;;;;;;;16.00;2.85;;;;;;;;;;5053472;28;20474;-26
2022/05/29 05:49:53;;;;;;;19.27;3.17;;;;;;;;;;5054099;28;20045;-26
2022/05/29 05:52:19;;;;;;;19.52;3.70;;;;;;;;;;5053489;28;20063;-26
2022/05/29 05:54:46;;;;;;;18.77;3.88;;;;;;;;;;5053782;28;20052;-26
2022/05/29 05:57:12;;;;;;;14.10;2.55;;;;;;;;;;5052069;28;20486;-26
2022/05/29 05:59:39;;;;;;;18.80;3.40;;;;;;;;;;5053678;28;20497;-26
2022/05/29 06:02:06;;;;;;;20.60;2.85;;;;;;;;;;5053370;28;20045;-26
2022/05/29 06:04:32;;;;;;;14.45;2.60;;;;;;;;;;5053430;28;20040;-26
2022/05/29 06:06:58;;;;;;;21.08;3.10;;;;;;;;;;5052992;28;20107;-27
2022/05/29 06:09:27;;;;;;;21.40;3.50;;;;;;;;;;5053378;28;20053;-26
2022/05/29 06:11:53;;;;;;;20.33;2.78;;;;;;;;;;5053328;28;20103;-26
2022/05/29 06:14:19;;;;;;;14.77;3.85;;;;;;;;;;5052357;28;20048;-26
2022/05/29 06:16:45;;;;;;;15.48;3.15;;;;;;;;;;5053838;28;20128;-26
2022/05/29 06:19:11;;;;;;;16.00;2.72;;;;;;;;;;5053293;28;20044;-27
2022/05/29 06:21:37;;;;;;;10.45;2.80;;;;;;;;;;5054070;28;20110;-26
2022/05/29 06:24:04;;;;;;;12.93;2.25;;;;;;;;;;5056352;28;20049;-26
2022/05/29 06:26:30;;;;;;;17.75;2.67;;;;;;;;;;5057600;28;20044;-27
2022/05/29 06:28:58;;;;;;;14.63;2.50;;;;;;;;;;5056392;28;20049;-27
2022/05/29 06:31:25;;;;;;;13.25;1.73;;;;;;;;;;5057044;28;20049;-27
2022/05/29 06:33:51;;;;;;;16.42;2.42;;;;;;;;;;5056059;28;20087;-27
2022/05/29 06:36:20;;;;;;;17.00;2.78;;;;;;;;;;5057021;28;20045;-27
2022/05/29 06:38:49;;;;;;;17.65;2.97;;;;;;;;;;5056980;28;20060;-26
2022/05/29 06:41:16;;;;;;;12.25;1.92;;;;;;;;;;5057150;28;20123;-27
2022/05/29 06:43:42;;;;;;;14.57;2.60;;;;;;;;;;5057372;28;20059;-27
2022/05/29 06:46:09;;;;;;;16.40;3.38;;;;;;;;;;5056534;28;20090;-26
2022/05/29 06:48:37;;;;;;;10.48;2.30;;;;;;;;;;5057258;28;20457;-27
2022/05/29 06:51:07;;;;;;;13.13;2.13;;;;;;;;;;5055226;28;20095;-27
2022/05/29 06:53:33;;;;;;;13.30;1.88;;;;;;;;;;5056646;28;20080;-26
2022/05/29 06:55:59;;;;;;;10.32;1.58;;;;;;;;;;5056556;28;20047;-27
2022/05/29 06:58:25;;;;;;;9.43;1.77;;;;;;;;;;5055581;28;20136;-26
2022/05/29 07:09:06;;;;;;;14.80;2.17;;;;;;;;;;5055893;28;20418;-27
2022/05/29 07:11:35;;;;;;;11.48;2.17;;;;;;;;;;5055620;28;20382;-27
2022/05/29 07:14:05;;;;;;;10.95;1.70;;;;;;;;;;5056540;28;20049;-27
2022/05/29 07:16:35;;;;;;;12.05;2.47;;;;;;;;;;5056206;28;20072;-26
2022/05/29 07:19:01;;;;;;;11.27;1.50;;;;;;;;;;5056415;28;20130;-27
2022/05/29 07:21:33;;;;;;;8.90;1.55;;;;;;;;;;5056099;28;20048;-27
2022/05/29 07:23:59;;;;;;;13.15;2.40;;;;;;;;;;5056105;28;20056;-27
2022/05/29 07:26:26;;;;;;;5.93;1.50;;;;;;;;;;5038114;28;20040;-27
2022/05/29 07:28:52;;;;;;;8.65;1.92;;;;;;;;;;5055944;28;20045;-28
2022/05/29 07:31:18;;;;;;;10.13;1.48;;;;;;;;;;5056500;28;20049;-27
2022/05/29 07:33:45;;;;;;;7.40;1.40;;;;;;;;;;5055545;28;20394;-27
2022/05/29 07:36:12;;;;;;;11.48;1.58;;;;;;;;;;5056665;28;20037;-27
2022/05/29 07:38:38;;;;;;;7.82;1.98;;;;;;;;;;5055537;28;20537;-26
2022/05/29 07:43:18;;;;;;;10.48;1.45;;;;;;;;;;5056323;28;20045;-26
2022/05/29 07:43:55;;;;;;;5.70;1.30;;;;;;;;;;5054968;28;20092;-27
2022/05/29 07:46:21;;;;;;;9.93;1.92;;;;;;;;;;5055617;28;20041;-26
2022/05/29 07:48:48;;;;;;;13.23;1.60;;;;;;;;;;5056191;28;20045;-26
2022/05/29 07:51:14;;;;;;;10.13;1.67;;;;;;;;;;5054352;28;20378;-27
2022/05/29 07:53:40;;;;;;;15.70;2.00;;;;;;;;;;5056059;28;20045;-27
2022/05/29 07:56:06;;;;;;;10.80;2.00;;;;;;;;;;5055527;28;20036;-27
2022/05/29 07:58:33;;;;;;;9.40;1.95;;;;;;;;;;5055257;28;20053;-27
2022/05/29 08:00:59;;;;;;;8.50;1.75;;;;;;;;;;5055633;28;20375;-27
2022/05/29 08:03:25;;;;;;;13.13;2.55;;;;;;;;;;5055276;28;20053;-27
2022/05/29 08:05:52;;;;;;;9.95;1.55;;;;;;;;;;5055438;28;20070;-27
2022/05/29 08:08:18;;;;;;;6.43;1.05;;;;;;;;;;5055049;28;20064;-27
2022/05/29 08:10:45;;;;;;;7.45;2.28;;;;;;;;;;5055215;28;20049;-26
2022/05/29 08:13:11;;;;;;;9.65;1.48;;;;;;;;;;5054183;28;20474;-26
2022/05/29 08:15:37;;;;;;;7.53;1.70;;;;;;;;;;5053876;28;20051;-28
2022/05/29 08:18:04;;;;;;;11.05;1.52;;;;;;;;;;5053843;28;20045;-26
2022/05/29 08:20:30;;;;;;;11.80;2.13;;;;;;;;;;5054029;28;20057;-27
2022/05/29 08:22:56;;;;;;;6.40;1.58;;;;;;;;;;5053794;28;20087;-26
2022/05/29 08:30:53;;;;;;;9.40;1.50;;;;;;;;;;5053804;28;20052;-26
2022/05/29 08:33:30;;;;;;;14.38;2.35;;;;;;;;;;5054793;28;20522;-27
2022/05/29 08:36:01;;;;;;;8.27;1.27;;;;;;;;;;5054757;28;20053;-27
2022/05/29 08:38:28;;;;;;;13.20;2.28;;;;;;;;;;5053757;28;20391;-26
2022/05/29 08:41:04;;;;;;;6.43;1.05;;;;;;;;;;5054509;28;20129;-26
2022/05/29 08:43:35;;;;;;;11.35;1.83;;;;;;;;;;5054263;28;20114;-27
2022/05/29 08:46:16;;;;;;;7.32;0.95;;;;;;;;;;5053656;28;20568;-27
2022/05/29 08:48:42;;;;;;;8.68;1.55;;;;;;;;;;5053521;28;20052;-27
2022/05/29 08:51:37;;;;;;;11.52;1.38;;;;;;;;;;5054387;28;20487;-27
2022/05/29 08:54:06;;;;;;;9.48;1.20;;;;;;;;;;5045368;28;20049;-27
2022/05/29 08:56:35;;;;;;;8.52;1.75;;;;;;;;;;5054184;28;20071;-27
2022/05/29 08:59:12;;;;;;;13.15;2.20;;;;;;;;;;5054278;28;20119;-26
2022/05/29 09:01:56;;;;;;;8.27;1.85;;;;;;;;;;5053956;28;20575;-27
2022/05/29 09:04:48;;;;;;;5.00;1.10;;;;;;;;;;5053540;28;20055;-27
2022/05/29 09:07:17;;;;;;;10.75;1.63;;;;;;;;;;5051765;28;20075;-26
2022/05/29 09:09:43;;;;;;;6.70;1.42;;;;;;;;;;5054117;28;20080;-26
2022/05/29 09:12:15;;;;;;;13.90;1.75;;;;;;;;;;5053377;28;20063;-26
2022/05/29 09:14:45;;;;;;;11.32;1.85;;;;;;;;;;5054028;28;20052;-26
2022/05/29 09:17:15;;;;;;;10.68;1.95;;;;;;;;;;5052985;28;20558;-27
2022/05/29 09:19:48;;;;;;;11.90;1.50;;;;;;;;;;5052497;28;20415;-27
2022/05/29 09:22:14;;;;;;;7.63;1.40;;;;;;;;;;5053978;28;20049;-26
2022/05/29 09:24:47;;;;;;;8.57;1.67;;;;;;;;;;5053933;28;20103;-27
2022/05/29 09:27:14;;;;;;;9.55;1.70;;;;;;;;;;5054377;28;20127;-26
2022/05/29 09:29:40;;;;;;;10.23;1.80;;;;;;;;;;5054322;28;20056;-26
2022/05/29 09:32:09;;;;;;;8.02;1.35;;;;;;;;;;5053765;28;20063;-26
2022/05/29 09:34:36;;;;;;;9.57;1.35;;;;;;;;;;5053706;28;20049;-26
2022/05/29 09:37:11;;;;;;;10.35;1.60;;;;;;;;;;5053635;28;20048;-26
2022/05/29 09:39:44;;;;;;;8.15;1.48;;;;;;;;;;5052575;28;20059;-27
2022/05/29 09:42:16;;;;;;;8.87;1.67;;;;;;;;;;5053591;28;20090;-26
2022/05/29 09:45:02;;;;;;;11.30;2.10;;;;;;;;;;5052851;28;20060;-26
2022/05/29 09:50:19;;;;;;;12.50;2.45;;;;;;;;;;5053568;28;20159;-26
2022/05/29 09:52:46;;;;;;;9.52;1.65;;;;;;;;;;5053593;28;20081;-26
2022/05/29 09:55:32;;;;;;;11.05;1.45;;;;;;;;;;5036664;28;20056;-27
2022/05/29 09:58:03;;;;;;;10.75;2.15;;;;;;;;;;5055007;28;20049;-27
2022/05/29 10:00:42;;;;;;;8.93;1.50;;;;;;;;;;5057692;28;20048;-27
2022/05/29 10:03:11;;;;;;;6.25;1.00;;;;;;;;;;5057565;28;20095;-26
2022/05/29 10:05:39;;;;;;;11.85;1.55;;;;;;;;;;5057847;28;20047;-27
2022/05/29 10:08:24;;;;;;;8.45;1.13;;;;;;;;;;5056252;28;20057;-26
2022/05/29 10:10:50;;;;;;;9.23;1.42;;;;;;;;;;5058315;28;20049;-26
2022/05/29 10:13:34;;;;;;;6.25;1.45;;;;;;;;;;5057282;28;20536;-27
2022/05/29 10:16:00;;;;;;;10.02;1.08;;;;;;;;;;5056433;28;20501;-26
2022/05/29 10:18:29;;;;;;;9.27;0.90;;;;;;;;;;5040183;28;20045;-27
2022/05/29 10:21:05;;;;;;;8.65;1.20;;;;;;;;;;5057270;28;20049;-27
2022/05/29 10:23:32;;;;;;;8.88;1.73;;;;;;;;;;5057261;28;20541;-26
2022/05/29 10:26:04;;;;;;;6.45;1.42;;;;;;;;;;5057091;28;20053;-26
2022/05/29 10:28:32;;;;;;;7.38;0.80;;;;;;;;;;5057708;28;20045;-26
2022/05/29 10:31:00;;;;;;;5.97;1.35;;;;;;;;;;5057633;28;20049;-26
2022/05/29 10:33:31;;;;;;;7.97;1.17;;;;;;;;;;5055890;28;20045;-27
2022/05/29 10:36:02;;;;;;;5.15;0.90;;;;;;;;;;5056985;28;20048;-26
2022/05/29 10:38:29;;;;;;;7.05;1.23;;;;;;;;;;5056986;28;20052;-27
2022/05/29 10:40:57;;;;;;;6.65;1.20;;;;;;;;;;5056770;28;20044;-26
2022/05/29 10:43:43;;;;;;;10.93;1.45;;;;;;;;;;5056841;28;20506;-26
2022/05/29 10:46:15;;;;;;;11.93;1.60;;;;;;;;;;5055721;28;20041;-27
2022/05/29 10:48:50;;;;;;;10.68;1.50;;;;;;;;;;5056811;28;20048;-26
2022/05/29 10:51:25;;;;;;;8.70;1.42;;;;;;;;;;5056698;28;20049;-26
2022/05/29 10:54:10;;;;;;;9.32;1.30;;;;;;;;;;5055553;28;20052;-26
2022/05/29 10:56:42;;;;;;;10.63;1.48;;;;;;;;;;5056486;28;20057;-26
2022/05/29 10:59:08;;;;;;;8.02;1.33;;;;;;;;;;5056589;28;20071;-26
2022/05/29 11:05:04;;;;;;;13.68;1.25;;;;;;;;;;5056513;28;20064;-27
2022/05/29 11:07:42;;;;;;;7.43;1.40;;;;;;;;;;5035472;28;20076;-26
2022/05/29 11:10:20;;;;;;;10.82;1.23;;;;;;;;;;5055944;28;20064;-26
2022/05/29 11:12:50;;;;;;;9.73;1.58;;;;;;;;;;5055397;28;20486;-26
2022/05/29 11:15:29;;;;;;;10.10;2.03;;;;;;;;;;5057139;28;20498;-26
2022/05/29 11:18:05;;;;;;;11.52;1.45;;;;;;;;;;5055623;28;20569;-26
2022/05/29 11:20:42;;;;;;;15.63;1.98;;;;;;;;;;5056270;28;20112;-27
2022/05/29 11:23:26;;;;;;;12.15;1.85;;;;;;;;;;5056713;28;20052;-26
2022/05/29 11:26:12;;;;;;;10.27;1.63;;;;;;;;;;5056570;28;20055;-26
2022/05/29 11:28:42;;;;;;;10.20;1.67;;;;;;;;;;5054980;28;20064;-26
2022/05/29 11:31:11;;;;;;;8.68;1.50;;;;;;;;;;5055860;28;20049;-26
2022/05/29 11:33:46;;;;;;;12.50;3.10;;;;;;;;;;5055954;28;20052;-27
2022/05/29 11:36:12;;;;;;;11.07;1.70;;;;;;;;;;5054685;28;20127;-26
2022/05/29 11:38:39;;;;;;;5.75;1.23;;;;;;;;;;5054878;28;20049;-26
2022/05/29 11:41:08;;;;;;;9.20;1.52;;;;;;;;;;5055789;28;20052;-26
2022/05/29 11:43:39;;;;;;;9.95;1.55;;;;;;;;;;5056287;28;20052;-26
2022/05/29 11:51:51;;;;;;;9.60;1.67;;;;;;;;;;5056203;28;20094;-26
2022/05/29 11:54:21;;;;;;;6.60;1.73;;;;;;;;;;5055526;28;20049;-26
2022/05/29 11:56:57;;;;;;;10.02;1.55;;;;;;;;;;5054591;28;20059;-26
2022/05/29 11:59:26;;;;;;;7.15;1.20;;;;;;;;;;5056025;28;20055;-26
2022/05/29 12:02:20;;;;;;;9.70;1.55;;;;;;;;;;5055306;28;20071;-26
2022/05/29 12:04:53;;;;;;;7.32;1.00;;;;;;;;;;5055953;28;20045;-26
2022/05/29 12:07:39;;;;;;;7.38;1.10;;;;;;;;;;5055206;28;20167;-27
2022/05/29 12:10:16;;;;;;;8.70;2.30;;;;;;;;;;5055326;28;20060;-26
2022/05/29 12:12:44;;;;;;;14.35;2.78;;;;;;;;;;5055806;28;20045;-26
2022/05/29 12:15:13;;;;;;;13.63;2.42;;;;;;;;;;5054711;28;20049;-26
2022/05/29 12:17:44;;;;;;;8.98;1.58;;;;;;;;;;5055102;28;20037;-26
2022/05/29 12:20:19;;;;;;;9.85;1.50;;;;;;;;;;5053852;28;20505;-26
2022/05/29 12:22:48;;;;;;;11.35;1.92;;;;;;;;;;5055056;28;20490;-26
2022/05/29 12:25:33;;;;;;;9.93;1.98;;;;;;;;;;5054950;28;20052;-26
2022/05/29 12:28:03;;;;;;;7.38;1.45;;;;;;;;;;5054885;28;20060;-26
2022/05/29 12:30:33;;;;;;;13.23;2.60;;;;;;;;;;5055158;28;20059;-26
2022/05/29 12:33:02;;;;;;;14.40;1.73;;;;;;;;;;5055106;28;20483;-26
2022/05/29 12:35:35;;;;;;;9.68;1.85;;;;;;;;;;5054764;28;20091;-26
2022/05/29 12:38:20;;;;;;;13.95;2.10;;;;;;;;;;5055382;28;20059;-26
2022/05/29 12:40:53;;;;;;;9.70;1.10;;;;;;;;;;5054727;28;20048;-27
2022/05/29 12:43:36;;;;;;;9.70;1.48;;;;;;;;;;5055527;28;20395;-26
2022/05/29 12:46:22;;;;;;;9.13;1.40;;;;;;;;;;5054628;28;20049;-26
2022/05/29 12:48:48;;;;;;;6.90;0.98;;;;;;;;;;5055230;28;20064;-26
2022/05/29 12:51:39;;;;;;;10.65;1.90;;;;;;;;;;5054502;28;20049;-26
2022/05/29 12:54:16;;;;;;;7.88;1.42;;;;;;;;;;5055298;28;20045;-26
2022/05/29 12:56:48;;;;;;;8.23;1.02;;;;;;;;;;5055017;28;20049;-27
2022/05/29 12:59:29;;;;;;;5.10;1.00;;;;;;;;;;5054347;28;20095;-26
2022/05/29 13:01:59;;;;;;;7.40;1.58;;;;;;;;;;5053023;28;20055;-26
2022/05/29 13:04:25;;;;;;;8.65;1.48;;;;;;;;;;5054494;28;20136;-26
2022/05/29 13:07:02;;;;;;;12.38;2.00;;;;;;;;;;5052697;28;20060;-26
2022/05/29 13:09:39;;;;;;;10.43;1.65;;;;;;;;;;5054159;28;20092;-26
2022/05/29 13:12:19;;;;;;;12.93;2.00;;;;;;;;;;5054750;28;20090;-26
2022/05/29 13:14:47;;;;;;;10.73;1.67;;;;;;;;;;5054054;28;20059;-26
2022/05/29 13:17:21;;;;;;;11.48;1.40;;;;;;;;;;5053989;28;20047;-26
2022/05/29 13:20:05;;;;;;;9.93;1.80;;;;;;;;;;5054035;28;20049;-26
2022/05/29 13:22:48;;;;;;;12.50;2.13;;;;;;;;;;5052799;28;20098;-26
2022/05/29 13:25:16;;;;;;;8.15;1.60;;;;;;;;;;5053899;28;20055;-26
2022/05/29 13:27:42;;;;;;;8.38;2.22;;;;;;;;;;5053762;28;20041;-26
2022/05/29 13:30:09;;;;;;;10.75;2.47;;;;;;;;;;5054372;28;20080;-26
2022/05/29 13:32:36;;;;;;;8.40;1.88;;;;;;;;;;5053616;28;20136;-26
2022/05/29 13:35:02;;;;;;;7.53;1.20;;;;;;;;;;5053804;28;20067;-26
2022/05/29 13:37:39;;;;;;;5.20;1.20;;;;;;;;;;5053722;28;20098;-26
2022/05/29 13:40:06;;;;;;;9.30;1.48;;;;;;;;;;5053716;28;20102;-26
2022/05/29 13:42:32;;;;;;;7.93;0.75;;;;;;;;;;5053359;28;20526;-26
2022/05/29 13:44:59;;;;;;;9.95;1.83;;;;;;;;;;5053015;28;20449;-26
2022/05/29 13:47:36;;;;;;;11.55;1.60;;;;;;;;;;5053554;28;20045;-26
2022/05/29 13:50:02;;;;;;;6.80;1.25;;;;;;;;;;5053211;28;20057;-26
2022/05/29 13:52:34;;;;;;;8.52;0.93;;;;;;;;;;5053793;28;20057;-26
2022/05/29 13:55:05;;;;;;;9.95;1.77;;;;;;;;;;5054112;28;20045;-26
2022/05/29 14:06:19;;;;;;;11.82;1.90;;;;;;;;;;5053103;28;20375;-26
2022/05/29 14:08:55;;;;;;;7.75;1.67;;;;;;;;;;5053739;28;20094;-26
2022/05/29 14:11:22;;;;;;;11.27;2.13;;;;;;;;;;5054504;28;20051;-26
2022/05/29 14:13:52;;;;;;;16.15;2.05;;;;;;;;;;5054147;28;20044;-26
2022/05/29 14:16:32;;;;;;;12.02;2.35;;;;;;;;;;5053190;28;20049;-26
2022/05/29 14:19:22;;;;;;;13.07;2.35;;;;;;;;;;5052031;28;20080;-26
2022/05/29 14:21:51;;;;;;;8.20;1.60;;;;;;;;;;5053697;28;20436;-26
2022/05/29 14:24:27;;;;;;;14.82;1.95;;;;;;;;;;5053056;28;20053;-27
2022/05/29 14:26:59;;;;;;;10.95;2.95;;;;;;;;;;5052830;28;20049;-26
2022/05/29 14:29:30;;;;;;;16.65;2.30;;;;;;;;;;5053021;28;20060;-26
2022/05/29 14:32:05;;;;;;;10.43;2.05;;;;;;;;;;5052379;28;20067;-26
2022/05/29 14:34:36;;;;;;;12.35;2.15;;;;;;;;;;5053057;28;20048;-26
2022/05/29 14:37:08;;;;;;;12.15;1.83;;;;;;;;;;5053022;28;20201;-26
2022/05/29 14:39:34;;;;;;;9.02;1.88;;;;;;;;;;5052658;28;20060;-26
2022/05/29 14:42:20;;;;;;;13.02;2.20;;;;;;;;;;5052934;28;20122;-26
2022/05/29 14:44:49;;;;;;;19.98;2.92;;;;;;;;;;5055213;28;20066;-26
2022/05/29 14:47:47;;;;;;;14.68;2.28;;;;;;;;;;5056710;28;20045;-25
2022/05/29 14:50:19;;;;;;;14.82;2.92;;;;;;;;;;5033853;28;20067;-26
2022/05/29 14:52:55;;;;;;;15.48;2.30;;;;;;;;;;5056611;28;20051;-26
2022/05/29 14:55:26;;;;;;;10.55;2.08;;;;;;;;;;5056973;28;20052;-26
2022/05/29 14:57:59;;;;;;;10.90;1.75;;;;;;;;;;5057008;28;20394;-26
2022/05/29 15:00:27;;;;;;;9.50;2.15;;;;;;;;;;5056220;28;20566;-26
2022/05/29 15:02:54;;;;;;;10.23;1.85;;;;;;;;;;5056522;28;20194;-25
2022/05/29 15:05:21;;;;;;;9.63;1.65;;;;;;;;;;5038710;28;20095;-25
2022/05/29 15:10:51;;;;;;;;;;;;;;;;;;5057429;28;20453;-25
2022/05/29 15:13:22;;;;;;;7.75;1.60;;;;;;;;;;5056908;28;20001;-25
2022/05/29 15:15:58;;;;;;;11.70;2.17;;;;;;;;;;5065785;28;20044;-25
2022/05/29 15:18:32;;;;;;;11.45;1.90;;;;;;;;;;5065983;28;20044;-25
2022/05/29 15:26:38;;;;;;;16.08;3.25;;;;;;;;;;5073940;28;20044;-26
2022/05/29 15:29:09;;;;;;;13.52;2.25;;;;;;;;;;5056066;28;20080;-25
2022/05/29 15:31:36;;;;;;;16.58;2.17;;;;;;;;;;5056915;28;20045;-26
2022/05/29 15:34:05;;;;;;;12.38;2.20;;;;;;;;;;5055954;28;20049;-25
2022/05/29 15:36:43;;;;;;;9.73;1.35;;;;;;;;;;5056224;28;20040;-25
2022/05/29 15:39:15;;;;;;;13.65;2.38;;;;;;;;;;5056456;28;20052;-25
2022/05/29 15:41:44;;;;;;;12.77;2.25;;;;;;;;;;5056185;28;20084;-25
2022/05/29 15:44:24;;;;;;;10.20;2.47;;;;;;;;;;5055742;28;20053;-25
2022/05/29 15:46:54;;;;;;;14.60;3.08;;;;;;;;;;5055634;28;20070;-25